createdAt,value
2018-04-08T00:00:14.619Z,56.17
2018-04-08T00:01:14.526Z,56.37
2018-04-08T00:02:14.547Z,55.96
2018-04-08T00:03:14.561Z,56.43
2018-04-08T00:04:14.578Z,56.53
2018-04-08T00:05:14.596Z,56.72
2018-04-08T00:06:14.612Z,55.86
2018-04-08T00:07:14.634Z,55.47
2018-04-08T00:08:14.644Z,56.24
2018-04-08T00:09:14.663Z,57.10
2018-04-08T00:10:14.681Z,57.48
2018-04-08T00:11:14.699Z,57.10
2018-04-08T00:12:14.816Z,57.10
2018-04-08T00:13:14.732Z,57.29
2018-04-08T00:14:14.750Z,58.15
2018-04-08T00:15:14.769Z,57.20
2018-04-08T00:16:14.786Z,57.97
2018-04-08T00:17:14.800Z,57.97
2018-04-08T00:18:14.831Z,58.25
2018-04-08T00:19:14.833Z,58.15
2018-04-08T00:20:14.851Z,57.58
2018-04-08T00:21:14.870Z,58.06
2018-04-08T00:22:14.885Z,58.06
2018-04-08T00:23:14.954Z,58.34
2018-04-08T00:24:14.923Z,58.73
2018-04-08T00:25:14.938Z,58.25
2018-04-08T00:26:14.954Z,58.80
2018-04-08T00:27:14.969Z,58.22
2018-04-08T00:28:14.989Z,58.22
2018-04-08T00:29:15.008Z,58.22
2018-04-08T00:30:15.025Z,58.22
2018-04-08T00:31:15.041Z,59.37
2018-04-08T00:32:15.055Z,59.37
2018-04-08T00:33:15.073Z,59.37
2018-04-08T00:34:15.092Z,58.51
2018-04-08T00:35:15.106Z,59.56
2018-04-08T00:36:15.123Z,59.56
2018-04-08T00:37:15.143Z,59.94
2018-04-08T00:38:15.161Z,59.27
2018-04-08T00:39:15.177Z,60.13
2018-04-08T00:40:15.193Z,59.84
2018-04-08T00:41:15.210Z,59.84
2018-04-08T00:42:15.228Z,60.33
2018-04-08T00:43:15.244Z,60.71
2018-04-08T00:44:15.262Z,60.80
2018-04-08T00:45:15.280Z,59.94
2018-04-08T00:46:15.293Z,59.94
2018-04-08T00:47:15.320Z,60.23
2018-04-08T00:48:15.327Z,60.52
2018-04-08T00:49:15.350Z,60.23
2018-04-08T00:50:15.361Z,60.90
2018-04-08T00:51:15.378Z,60.61
2018-04-08T00:52:15.394Z,60.33
2018-04-08T00:53:15.410Z,60.13
2018-04-08T00:54:15.428Z,60.30
2018-04-08T00:55:15.446Z,60.33
2018-04-08T00:56:15.461Z,60.42
2018-04-08T00:57:15.479Z,61.06
2018-04-08T00:58:15.647Z,60.77
2018-04-08T00:59:15.512Z,60.49
2018-04-08T01:00:15.530Z,60.87
2018-04-08T01:01:15.598Z,60.52
2018-04-08T01:02:15.663Z,60.71
2018-04-08T01:03:15.584Z,60.80
2018-04-08T01:04:15.598Z,59.94
2018-04-08T01:05:15.617Z,59.56
2018-04-08T01:06:15.631Z,60.23
2018-04-08T01:07:15.652Z,61.19
2018-04-08T01:08:15.665Z,60.42
2018-04-08T01:09:15.680Z,60.33
2018-04-08T01:10:15.700Z,58.80
2018-04-08T01:11:15.714Z,59.94
2018-04-08T01:12:15.881Z,60.33
2018-04-08T01:13:15.752Z,59.66
2018-04-08T01:14:15.767Z,60.80
2018-04-08T01:15:15.781Z,60.23
2018-04-08T01:16:15.802Z,60.13
2018-04-08T01:17:15.816Z,60.23
2018-04-08T01:18:15.832Z,61.06
2018-04-08T01:19:15.847Z,60.99
2018-04-08T01:20:15.864Z,60.96
2018-04-08T01:21:15.881Z,60.49
2018-04-08T01:22:15.897Z,61.38
2018-04-08T01:23:15.914Z,60.20
2018-04-08T01:24:15.934Z,59.72
2018-04-08T01:25:15.955Z,60.96
2018-04-08T01:26:15.975Z,60.87
2018-04-08T01:27:15.982Z,60.68
2018-04-08T01:28:16.000Z,61.44
2018-04-08T01:29:16.171Z,61.63
2018-04-08T01:30:16.033Z,60.49
2018-04-08T01:31:16.050Z,62.30
2018-04-08T01:32:16.067Z,61.92
2018-04-08T01:33:16.284Z,61.63
2018-04-08T01:34:16.156Z,60.96
2018-04-08T01:35:16.124Z,62.11
2018-04-08T01:36:16.132Z,61.72
2018-04-08T01:37:16.149Z,61.92
2018-04-08T01:38:16.167Z,62.21
2018-04-08T01:39:16.186Z,62.59
2018-04-08T01:40:16.201Z,62.68
2018-04-08T01:41:16.220Z,61.16
2018-04-08T01:42:16.235Z,62.30
2018-04-08T01:43:16.254Z,61.92
2018-04-08T01:44:16.269Z,61.44
2018-04-08T01:45:16.284Z,62.01
2018-04-08T01:46:16.303Z,62.68
2018-04-08T01:47:16.317Z,62.87
2018-04-08T01:48:16.336Z,62.49
2018-04-08T01:49:16.352Z,62.59
2018-04-08T01:50:16.377Z,62.49
2018-04-08T01:51:16.385Z,60.96
2018-04-08T01:52:16.403Z,60.30
2018-04-08T01:53:16.421Z,60.49
2018-04-08T01:54:16.435Z,61.25
2018-04-08T01:55:16.458Z,61.63
2018-04-08T01:56:16.470Z,61.06
2018-04-08T01:57:16.483Z,60.77
2018-04-08T01:58:16.517Z,60.96
2018-04-08T01:59:16.541Z,60.77
2018-04-08T02:00:16.535Z,60.10
2018-04-08T02:01:16.550Z,61.06
2018-04-08T02:02:16.575Z,60.49
2018-04-08T02:03:16.594Z,60.10
2018-04-08T02:04:16.607Z,59.53
2018-04-08T02:05:16.619Z,59.44
2018-04-08T02:06:16.642Z,60.58
2018-04-08T02:07:16.700Z,60.30
2018-04-08T02:08:16.774Z,60.01
2018-04-08T02:09:16.685Z,60.39
2018-04-08T02:10:16.701Z,59.44
2018-04-08T02:11:16.935Z,59.53
2018-04-08T02:12:16.736Z,60.30
2018-04-08T02:13:16.755Z,59.63
2018-04-08T02:14:16.768Z,59.44
2018-04-08T02:15:16.783Z,59.53
2018-04-08T02:16:16.804Z,59.72
2018-04-08T02:17:16.818Z,59.72
2018-04-08T02:18:16.833Z,59.63
2018-04-08T02:19:16.849Z,59.05
2018-04-08T02:20:16.872Z,59.88
2018-04-08T02:21:16.885Z,59.88
2018-04-08T02:22:16.908Z,60.30
2018-04-08T02:23:16.917Z,60.10
2018-04-08T02:24:16.934Z,60.46
2018-04-08T02:25:16.949Z,60.55
2018-04-08T02:26:16.966Z,60.39
2018-04-08T02:27:16.982Z,59.69
2018-04-08T02:28:16.998Z,59.63
2018-04-08T02:29:17.014Z,60.07
2018-04-08T02:30:17.034Z,59.41
2018-04-08T02:31:17.051Z,59.15
2018-04-08T02:32:17.064Z,59.72
2018-04-08T02:33:17.082Z,59.81
2018-04-08T02:34:17.103Z,59.50
2018-04-08T02:35:17.116Z,60.30
2018-04-08T02:36:17.131Z,60.64
2018-04-08T02:37:17.148Z,60.20
2018-04-08T02:38:17.163Z,60.27
2018-04-08T02:39:17.181Z,59.98
2018-04-08T02:40:17.200Z,60.36
2018-04-08T02:41:17.217Z,60.46
2018-04-08T02:42:17.233Z,60.46
2018-04-08T02:43:17.252Z,60.46
2018-04-08T02:44:17.263Z,60.07
2018-04-08T02:45:17.281Z,60.46
2018-04-08T02:46:17.300Z,61.13
2018-04-08T02:47:17.314Z,61.69
2018-04-08T02:48:17.330Z,61.98
2018-04-08T02:49:17.349Z,62.08
2018-04-08T02:50:17.363Z,61.98
2018-04-08T02:51:17.378Z,62.08
2018-04-08T02:52:17.396Z,61.98
2018-04-08T02:53:17.413Z,62.55
2018-04-08T02:54:17.430Z,62.18
2018-04-08T02:55:17.447Z,63.23
2018-04-08T02:56:17.466Z,62.84
2018-04-08T02:57:17.482Z,63.48
2018-04-08T02:58:17.595Z,63.10
2018-04-08T02:59:17.514Z,62.81
2018-04-08T03:00:17.527Z,62.52
2018-04-08T03:01:17.554Z,63.48
2018-04-08T03:02:17.564Z,63.48
2018-04-08T03:03:17.579Z,63.76
2018-04-08T03:04:17.595Z,63.67
2018-04-08T03:05:17.615Z,63.48
2018-04-08T03:06:17.628Z,63.29
2018-04-08T03:07:17.648Z,63.48
2018-04-08T03:08:17.661Z,62.91
2018-04-08T03:09:17.678Z,63.10
2018-04-08T03:10:17.695Z,62.81
2018-04-08T03:11:17.713Z,63.10
2018-04-08T03:12:17.725Z,63.67
2018-04-08T03:13:17.746Z,61.95
2018-04-08T03:14:17.761Z,61.95
2018-04-08T03:16:17.791Z,61.86
2018-04-08T03:17:17.807Z,62.15
2018-04-08T03:18:17.824Z,61.57
2018-04-08T03:19:17.841Z,61.19
2018-04-08T03:20:17.856Z,61.10
2018-04-08T03:21:17.872Z,61.38
2018-04-08T03:22:17.887Z,60.90
2018-04-08T03:23:17.911Z,60.81
2018-04-08T03:24:17.924Z,61.57
2018-04-08T03:25:17.936Z,61.57
2018-04-08T03:26:17.961Z,62.15
2018-04-08T03:27:17.970Z,61.86
2018-04-08T03:28:18.089Z,61.86
2018-04-08T03:29:18.006Z,62.34
2018-04-08T03:30:18.026Z,62.62
2018-04-08T03:31:18.036Z,62.24
2018-04-08T03:32:18.053Z,62.15
2018-04-08T03:33:18.071Z,62.15
2018-04-08T03:34:18.086Z,61.66
2018-04-08T03:35:18.099Z,62.52
2018-04-08T03:36:18.120Z,62.91
2018-04-08T03:37:18.146Z,61.76
2018-04-08T03:38:18.150Z,61.29
2018-04-08T03:39:18.164Z,62.24
2018-04-08T03:40:18.194Z,61.95
2018-04-08T03:41:18.200Z,62.05
2018-04-08T03:42:18.221Z,61.00
2018-04-08T03:43:18.233Z,61.00
2018-04-08T03:44:18.247Z,60.61
2018-04-08T03:45:18.262Z,60.33
2018-04-08T03:46:18.281Z,60.33
2018-04-08T03:47:18.297Z,60.04
2018-04-08T03:48:18.647Z,60.81
2018-04-08T03:49:18.551Z,60.24
2018-04-08T03:50:18.348Z,60.81
2018-04-08T03:51:18.364Z,60.14
2018-04-08T03:52:18.380Z,60.04
2018-04-08T03:53:18.393Z,60.24
2018-04-08T03:54:18.418Z,60.90
2018-04-08T03:55:18.429Z,60.81
2018-04-08T03:56:18.446Z,61.47
2018-04-08T03:57:18.463Z,61.29
2018-04-08T03:58:18.475Z,60.24
2018-04-08T03:59:18.492Z,60.81
2018-04-08T04:00:18.513Z,60.04
2018-04-08T04:01:18.526Z,59.95
2018-04-08T04:02:18.553Z,60.42
2018-04-08T04:03:18.563Z,59.95
2018-04-08T04:04:18.577Z,59.76
2018-04-08T04:05:18.593Z,60.24
2018-04-08T04:06:18.612Z,60.24
2018-04-08T04:07:18.623Z,60.33
2018-04-08T04:08:18.640Z,60.33
2018-04-08T04:09:18.658Z,60.14
2018-04-08T04:10:18.673Z,60.90
2018-04-08T04:11:18.687Z,61.38
2018-04-08T04:12:18.703Z,61.00
2018-04-08T04:13:18.720Z,60.81
2018-04-08T04:14:18.738Z,60.81
2018-04-08T04:15:18.754Z,60.81
2018-04-08T04:16:18.769Z,62.15
2018-04-08T04:17:18.787Z,61.57
2018-04-08T04:18:18.810Z,61.57
2018-04-08T04:19:19.005Z,60.90
2018-04-08T04:20:18.835Z,60.90
2018-04-08T04:21:18.852Z,61.10
2018-04-08T04:22:18.869Z,60.97
2018-04-08T04:23:18.885Z,61.25
2018-04-08T04:24:18.899Z,61.44
2018-04-08T04:25:18.917Z,61.35
2018-04-08T04:26:18.937Z,61.54
2018-04-08T04:27:18.948Z,62.02
2018-04-08T04:28:18.966Z,61.54
2018-04-08T04:29:18.982Z,62.02
2018-04-08T04:30:18.997Z,62.59
2018-04-08T04:31:19.011Z,62.43
2018-04-08T04:32:19.028Z,62.59
2018-04-08T04:33:19.045Z,62.97
2018-04-08T04:34:19.060Z,62.97
2018-04-08T04:35:19.079Z,62.49
2018-04-08T04:36:19.094Z,62.59
2018-04-08T04:37:19.113Z,62.40
2018-04-08T04:38:19.127Z,62.59
2018-04-08T04:39:19.142Z,62.97
2018-04-08T04:40:19.159Z,62.30
2018-04-08T04:41:19.174Z,62.59
2018-04-08T04:42:19.190Z,62.49
2018-04-08T04:43:19.207Z,62.49
2018-04-08T04:44:19.224Z,62.49
2018-04-08T04:45:19.242Z,62.24
2018-04-08T04:46:19.257Z,61.54
2018-04-08T04:47:19.272Z,60.90
2018-04-08T04:48:19.294Z,60.90
2018-04-08T04:49:19.309Z,61.57
2018-04-08T04:50:19.327Z,60.90
2018-04-08T04:51:19.341Z,61.86
2018-04-08T04:52:19.354Z,61.38
2018-04-08T04:53:19.369Z,61.38
2018-04-08T04:54:19.386Z,61.66
2018-04-08T04:55:19.404Z,61.29
2018-04-08T04:56:19.417Z,61.38
2018-04-08T04:57:19.433Z,62.05
2018-04-08T04:58:19.450Z,61.29
2018-04-08T04:59:19.463Z,61.00
2018-04-08T05:00:19.482Z,61.07
2018-04-08T05:01:19.499Z,60.81
2018-04-08T05:02:19.515Z,61.76
2018-04-08T05:03:19.530Z,62.15
2018-04-08T05:04:19.546Z,61.66
2018-04-08T05:05:19.567Z,62.05
2018-04-08T05:06:19.582Z,61.47
2018-04-08T05:07:19.597Z,62.05
2018-04-08T05:08:19.614Z,61.38
2018-04-08T05:09:19.629Z,61.76
2018-04-08T05:10:19.644Z,61.00
2018-04-08T05:11:19.659Z,61.00
2018-04-08T05:12:19.676Z,61.10
2018-04-08T05:13:19.694Z,61.19
2018-04-08T05:14:19.712Z,61.29
2018-04-08T05:15:19.726Z,60.81
2018-04-08T05:16:19.740Z,60.90
2018-04-08T05:17:19.755Z,61.66
2018-04-08T05:18:19.774Z,61.86
2018-04-08T05:19:19.788Z,61.00
2018-04-08T05:20:19.808Z,61.57
2018-04-08T05:21:19.825Z,61.19
2018-04-08T05:22:19.836Z,61.95
2018-04-08T05:23:19.851Z,61.86
2018-04-08T05:24:19.883Z,61.29
2018-04-08T05:25:19.885Z,60.42
2018-04-08T05:26:19.904Z,60.81
2018-04-08T05:27:19.970Z,61.07
2018-04-08T05:29:20.411Z,61.00
2018-04-08T05:30:19.968Z,60.61
2018-04-08T05:31:19.983Z,61.19
2018-04-08T05:32:20.002Z,60.52
2018-04-08T05:33:20.016Z,60.24
2018-04-08T05:34:20.033Z,60.71
2018-04-08T05:35:20.048Z,60.33
2018-04-08T05:36:20.062Z,60.14
2018-04-08T05:37:20.081Z,60.04
2018-04-08T05:38:20.101Z,59.47
2018-04-08T05:39:20.112Z,60.04
2018-04-08T05:40:20.147Z,59.47
2018-04-08T05:41:20.147Z,59.47
2018-04-08T05:42:20.161Z,59.09
2018-04-08T05:43:20.586Z,59.12
2018-04-08T05:44:20.194Z,59.02
2018-04-08T05:45:20.209Z,58.73
2018-04-08T05:46:20.226Z,58.54
2018-04-08T05:47:20.242Z,58.73
2018-04-08T05:48:20.258Z,58.36
2018-04-08T05:49:20.275Z,58.26
2018-04-08T05:50:20.292Z,58.73
2018-04-08T05:51:20.319Z,58.16
2018-04-08T05:52:20.323Z,58.73
2018-04-08T05:53:20.340Z,58.45
2018-04-08T05:54:20.389Z,58.07
2018-04-08T05:55:20.374Z,57.40
2018-04-08T05:56:20.389Z,57.11
2018-04-08T05:57:20.409Z,57.31
2018-04-08T05:58:20.424Z,56.82
2018-04-08T05:59:20.441Z,56.92
2018-04-08T06:00:20.458Z,56.76
2018-04-08T06:01:20.477Z,57.53
2018-04-08T06:02:20.491Z,56.09
2018-04-08T06:03:20.584Z,56.09
2018-04-08T06:04:20.523Z,56.09
2018-04-08T06:05:20.548Z,55.99
2018-04-08T06:06:20.558Z,56.28
2018-04-08T06:07:20.571Z,56.38
2018-04-08T06:08:20.587Z,56.28
2018-04-08T06:09:20.606Z,56.09
2018-04-08T06:10:20.621Z,56.18
2018-04-08T06:11:20.637Z,55.61
2018-04-08T06:12:20.653Z,56.09
2018-04-08T06:13:20.683Z,56.28
2018-04-08T06:14:20.696Z,56.28
2018-04-08T06:15:20.706Z,56.28
2018-04-08T06:16:20.719Z,56.09
2018-04-08T06:17:20.736Z,56.28
2018-04-08T06:18:20.754Z,56.85
2018-04-08T06:19:20.769Z,56.28
2018-04-08T06:20:20.788Z,56.85
2018-04-08T06:21:20.803Z,57.90
2018-04-08T06:22:20.819Z,57.04
2018-04-08T06:23:20.872Z,56.57
2018-04-08T06:24:20.852Z,55.99
2018-04-08T06:25:20.871Z,56.38
2018-04-08T06:26:20.885Z,57.04
2018-04-08T06:27:20.903Z,56.18
2018-04-08T06:28:20.920Z,56.47
2018-04-08T06:29:21.114Z,56.18
2018-04-08T06:30:20.953Z,55.90
2018-04-08T06:31:20.968Z,56.47
2018-04-08T06:32:20.986Z,56.67
2018-04-08T06:33:21.001Z,57.14
2018-04-08T06:34:21.021Z,57.04
2018-04-08T06:35:21.034Z,56.95
2018-04-08T06:36:21.053Z,56.18
2018-04-08T06:37:21.061Z,56.28
2018-04-08T06:38:21.077Z,55.52
2018-04-08T06:39:21.101Z,56.18
2018-04-08T06:40:21.114Z,56.12
2018-04-08T06:41:21.129Z,56.02
2018-04-08T06:42:21.143Z,55.93
2018-04-08T06:43:21.159Z,55.83
2018-04-08T06:44:21.175Z,54.97
2018-04-08T06:45:21.194Z,55.83
2018-04-08T06:46:21.209Z,55.16
2018-04-08T06:47:21.227Z,54.68
2018-04-08T06:48:21.266Z,54.97
2018-04-08T06:49:21.308Z,54.30
2018-04-08T06:50:21.277Z,54.68
2018-04-08T06:51:21.293Z,54.97
2018-04-08T06:52:21.312Z,55.07
2018-04-08T06:53:21.329Z,55.16
2018-04-08T06:54:21.352Z,54.39
2018-04-08T06:55:21.358Z,54.68
2018-04-08T06:56:21.375Z,54.68
2018-04-08T06:57:21.395Z,54.49
2018-04-08T06:58:21.441Z,54.49
2018-04-08T06:59:21.426Z,54.59
2018-04-08T07:00:21.446Z,54.39
2018-04-08T07:01:21.460Z,54.68
2018-04-08T07:02:21.475Z,54.30
2018-04-08T07:03:21.493Z,55.54
2018-04-08T07:04:21.509Z,55.54
2018-04-08T07:05:21.618Z,55.29
2018-04-08T07:06:21.543Z,55.00
2018-04-08T07:07:21.565Z,54.52
2018-04-08T07:08:21.699Z,54.90
2018-04-08T07:09:21.593Z,54.90
2018-04-08T07:10:21.610Z,54.52
2018-04-08T07:11:21.627Z,54.23
2018-04-08T07:12:21.644Z,54.14
2018-04-08T07:13:21.665Z,54.71
2018-04-08T07:14:21.678Z,54.52
2018-04-08T07:15:21.693Z,54.33
2018-04-08T07:16:21.711Z,54.52
2018-04-08T07:17:21.728Z,54.04
2018-04-08T07:18:21.770Z,54.43
2018-04-08T07:19:21.763Z,53.66
2018-04-08T07:20:21.827Z,54.43
2018-04-08T07:21:21.795Z,53.97
2018-04-08T07:22:21.812Z,53.88
2018-04-08T07:23:21.829Z,53.78
2018-04-08T07:24:21.845Z,53.97
2018-04-08T07:25:21.862Z,53.78
2018-04-08T07:26:21.880Z,54.16
2018-04-08T07:27:21.897Z,53.78
2018-04-08T07:28:21.914Z,53.49
2018-04-08T07:29:21.931Z,54.83
2018-04-08T07:30:21.949Z,54.55
2018-04-08T07:31:21.965Z,54.36
2018-04-08T07:32:21.996Z,54.36
2018-04-08T07:33:21.999Z,53.78
2018-04-08T07:34:22.016Z,53.20
2018-04-08T07:35:22.033Z,53.40
2018-04-08T07:36:22.050Z,53.30
2018-04-08T07:37:22.071Z,53.20
2018-04-08T07:38:22.084Z,52.95
2018-04-08T07:39:22.106Z,52.92
2018-04-08T07:40:22.118Z,53.69
2018-04-08T07:41:22.135Z,53.20
2018-04-08T07:42:22.156Z,53.42
2018-04-08T07:43:22.170Z,53.11
2018-04-08T07:44:22.411Z,52.95
2018-04-08T07:45:22.481Z,52.85
2018-04-08T07:46:22.230Z,53.14
2018-04-08T07:47:22.241Z,52.47
2018-04-08T07:48:22.262Z,52.56
2018-04-08T07:49:22.294Z,52.56
2018-04-08T07:50:22.292Z,52.37
2018-04-08T07:51:22.305Z,52.18
2018-04-08T07:52:22.336Z,52.18
2018-04-08T07:53:22.340Z,52.18
2018-04-08T07:54:22.358Z,52.28
2018-04-08T07:55:22.377Z,52.18
2018-04-08T07:56:22.394Z,51.99
2018-04-08T07:57:22.409Z,51.63
2018-04-08T07:58:22.426Z,52.20
2018-04-08T07:59:22.443Z,52.11
2018-04-08T08:00:22.463Z,51.63
2018-04-08T08:01:22.479Z,51.73
2018-04-08T08:02:22.498Z,52.20
2018-04-08T08:03:22.515Z,51.63
2018-04-08T08:04:22.530Z,51.15
2018-04-08T08:05:22.587Z,51.54
2018-04-08T08:06:22.564Z,52.01
2018-04-08T08:07:22.589Z,52.20
2018-04-08T08:08:22.600Z,52.50
2018-04-08T08:09:22.615Z,52.40
2018-04-08T08:10:22.639Z,52.50
2018-04-08T08:11:22.650Z,52.50
2018-04-08T08:12:22.667Z,52.59
2018-04-08T08:13:22.685Z,52.40
2018-04-08T08:14:22.703Z,52.50
2018-04-08T08:15:22.718Z,52.69
2018-04-08T08:16:22.734Z,52.91
2018-04-08T08:17:22.753Z,52.91
2018-04-08T08:18:22.780Z,52.62
2018-04-08T08:19:22.796Z,52.52
2018-04-08T08:20:22.820Z,52.62
2018-04-08T08:21:22.828Z,52.52
2018-04-08T08:22:22.842Z,52.23
2018-04-08T08:23:22.855Z,52.33
2018-04-08T08:24:22.885Z,52.42
2018-04-08T08:25:22.892Z,52.04
2018-04-08T08:26:22.914Z,51.46
2018-04-08T08:27:22.929Z,51.56
2018-04-08T08:28:22.951Z,51.40
2018-04-08T08:29:22.960Z,51.30
2018-04-08T08:30:22.979Z,51.10
2018-04-08T08:31:22.995Z,50.34
2018-04-08T08:32:23.016Z,50.53
2018-04-08T08:33:23.029Z,50.05
2018-04-08T08:34:23.047Z,50.43
2018-04-08T08:35:23.069Z,50.34
2018-04-08T08:36:23.081Z,50.05
2018-04-08T08:37:23.100Z,49.48
2018-04-08T08:38:23.118Z,49.50
2018-04-08T08:39:23.135Z,48.64
2018-04-08T08:40:23.159Z,48.54
2018-04-08T08:41:23.169Z,48.64
2018-04-08T08:42:23.238Z,48.16
2018-04-08T08:43:23.205Z,47.87
2018-04-08T08:44:23.223Z,47.30
2018-04-08T08:45:23.262Z,47.77
2018-04-08T08:46:23.258Z,46.81
2018-04-08T08:47:23.283Z,46.65
2018-04-08T08:48:23.295Z,46.55
2018-04-08T08:49:23.314Z,46.07
2018-04-08T08:50:23.329Z,46.07
2018-04-08T08:51:23.741Z,45.88
2018-04-08T08:52:23.662Z,46.07
2018-04-08T08:53:23.382Z,45.68
2018-04-08T08:54:23.400Z,45.23
2018-04-08T08:55:23.417Z,44.65
2018-04-08T08:56:23.436Z,44.84
2018-04-08T08:57:23.452Z,44.17
2018-04-08T08:58:23.470Z,44.27
2018-04-08T08:59:23.487Z,44.48
2018-04-08T09:00:23.543Z,44.10
2018-04-08T09:01:23.529Z,43.33
2018-04-08T09:02:23.562Z,42.47
2018-04-08T09:03:23.606Z,42.37
2018-04-08T09:04:23.577Z,42.08
2018-04-08T09:05:23.599Z,41.72
2018-04-08T09:06:23.625Z,41.72
2018-04-08T09:07:23.633Z,41.82
2018-04-08T09:08:23.650Z,41.62
2018-04-08T09:09:23.668Z,41.33
2018-04-08T09:10:23.688Z,41.24
2018-04-08T09:11:23.706Z,40.85
2018-04-08T09:12:23.723Z,40.66
2018-04-08T09:13:23.742Z,40.20
2018-04-08T09:14:23.766Z,40.68
2018-04-08T09:15:23.777Z,40.20
2018-04-08T09:16:23.796Z,40.11
2018-04-08T09:17:23.818Z,39.91
2018-04-08T09:18:23.835Z,39.81
2018-04-08T09:19:23.856Z,39.62
2018-04-08T09:20:23.870Z,39.62
2018-04-08T09:21:23.889Z,39.72
2018-04-08T09:22:23.908Z,40.11
2018-04-08T09:23:23.926Z,40.49
2018-04-08T09:24:23.943Z,40.51
2018-04-08T09:25:23.961Z,40.11
2018-04-08T09:26:23.979Z,39.93
2018-04-08T09:27:23.996Z,40.30
2018-04-08T09:28:24.018Z,40.03
2018-04-08T09:29:24.035Z,40.22
2018-04-08T09:30:24.058Z,40.12
2018-04-08T09:31:24.073Z,39.64
2018-04-08T09:32:24.089Z,39.91
2018-04-08T09:33:24.110Z,39.81
2018-04-08T09:34:24.127Z,40.11
2018-04-08T09:35:24.144Z,40.49
2018-04-08T09:36:24.538Z,40.39
2018-04-08T09:37:24.185Z,40.41
2018-04-08T09:38:24.205Z,40.01
2018-04-08T09:39:24.220Z,40.12
2018-04-08T09:40:24.306Z,40.11
2018-04-08T09:41:24.309Z,40.01
2018-04-08T09:42:24.284Z,40.03
2018-04-08T09:43:24.305Z,39.74
2018-04-08T09:44:24.350Z,40.41
2018-04-08T09:45:24.330Z,40.03
2018-04-08T09:46:24.350Z,40.41
2018-04-08T09:47:24.368Z,40.22
2018-04-08T09:48:24.386Z,40.03
2018-04-08T09:49:24.402Z,39.93
2018-04-08T09:50:24.622Z,40.12
2018-04-08T09:51:24.440Z,40.22
2018-04-08T09:52:24.457Z,40.22
2018-04-08T09:54:24.498Z,40.41
2018-04-08T09:55:24.525Z,40.14
2018-04-08T09:56:24.533Z,40.24
2018-04-08T09:57:24.555Z,40.14
2018-04-08T09:58:24.581Z,40.14
2018-04-08T09:59:24.591Z,39.59
2018-04-08T10:00:24.608Z,38.62
2018-04-08T10:01:24.629Z,39.68
2018-04-08T10:02:24.645Z,39.01
2018-04-08T10:03:24.663Z,39.01
2018-04-08T10:04:24.686Z,38.81
2018-04-08T10:05:24.766Z,39.01
2018-04-08T10:06:24.720Z,38.91
2018-04-08T10:07:24.740Z,38.72
2018-04-08T10:09:24.779Z,38.06
2018-04-08T10:10:24.806Z,37.96
2018-04-08T10:11:24.818Z,37.68
2018-04-08T10:12:24.839Z,37.96
2018-04-08T10:13:24.865Z,37.58
2018-04-08T10:14:24.874Z,37.10
2018-04-08T10:15:24.897Z,37.01
2018-04-08T10:16:24.914Z,36.93
2018-04-08T10:17:24.930Z,37.41
2018-04-08T10:18:24.968Z,36.83
2018-04-08T10:19:24.969Z,36.06
2018-04-08T10:20:24.988Z,36.15
2018-04-08T10:21:25.009Z,36.93
2018-04-08T10:22:25.032Z,36.44
2018-04-08T10:23:25.062Z,35.86
2018-04-08T10:24:25.076Z,35.86
2018-04-08T10:25:25.086Z,35.77
2018-04-08T10:26:25.105Z,36.25
2018-04-08T10:27:25.132Z,36.06
2018-04-08T10:28:25.149Z,35.96
2018-04-08T10:29:25.195Z,35.88
2018-04-08T10:30:25.186Z,36.46
2018-04-08T10:31:25.210Z,36.46
2018-04-08T10:32:25.225Z,35.50
2018-04-08T10:33:25.247Z,35.50
2018-04-08T10:34:25.265Z,35.98
2018-04-08T10:35:25.285Z,35.88
2018-04-08T10:36:25.343Z,35.59
2018-04-08T10:37:25.322Z,35.59
2018-04-08T10:38:25.342Z,35.42
2018-04-08T10:39:25.366Z,34.84
2018-04-08T10:40:25.382Z,34.45
2018-04-08T10:41:25.407Z,34.64
2018-04-08T10:42:25.421Z,34.06
2018-04-08T10:43:25.441Z,34.06
2018-04-08T10:44:25.479Z,34.64
2018-04-08T10:45:25.512Z,34.55
2018-04-08T10:46:25.501Z,34.55
2018-04-08T10:47:25.519Z,35.22
2018-04-08T10:48:25.554Z,35.22
2018-04-08T10:49:25.565Z,34.74
2018-04-08T10:50:25.582Z,34.94
2018-04-08T10:51:25.601Z,35.53
2018-04-08T10:52:25.621Z,34.94
2018-04-08T10:53:25.643Z,34.45
2018-04-08T10:54:25.665Z,34.74
2018-04-08T10:55:25.888Z,34.45
2018-04-08T10:56:25.703Z,33.97
2018-04-08T10:57:25.722Z,33.97
2018-04-08T10:58:25.746Z,34.18
2018-04-08T10:59:25.766Z,33.98
2018-04-08T11:00:25.785Z,34.08
2018-04-08T11:01:25.810Z,34.86
2018-04-08T11:02:25.828Z,34.38
2018-04-08T11:03:25.859Z,34.38
2018-04-08T11:04:26.009Z,34.56
2018-04-08T11:05:26.315Z,33.70
2018-04-08T11:06:25.910Z,33.80
2018-04-08T11:07:25.930Z,33.70
2018-04-08T11:08:25.954Z,33.70
2018-04-08T11:09:25.968Z,33.80
2018-04-08T11:10:25.990Z,33.70
2018-04-08T11:11:26.013Z,33.60
2018-04-08T11:12:26.040Z,33.89
2018-04-08T11:13:26.057Z,33.80
2018-04-08T11:14:26.073Z,33.70
2018-04-08T11:15:26.095Z,34.08
2018-04-08T11:16:26.131Z,33.70
2018-04-08T11:17:26.149Z,33.80
2018-04-08T11:18:26.169Z,33.80
2018-04-08T11:19:26.176Z,33.12
2018-04-08T11:20:26.196Z,32.73
2018-04-08T11:21:26.219Z,32.82
2018-04-08T11:22:26.241Z,32.94
2018-04-08T11:23:26.259Z,32.65
2018-04-08T11:24:26.282Z,32.75
2018-04-08T11:25:26.302Z,32.26
2018-04-08T11:26:26.330Z,32.56
2018-04-08T11:27:26.345Z,32.46
2018-04-08T11:28:26.374Z,32.56
2018-04-08T11:29:26.391Z,32.36
2018-04-08T11:30:26.408Z,32.56
2018-04-08T11:31:26.427Z,31.49
2018-04-08T11:32:26.457Z,32.17
2018-04-08T11:33:26.475Z,31.10
2018-04-08T11:34:26.492Z,31.59
2018-04-08T11:35:26.510Z,31.31
2018-04-08T11:36:26.535Z,31.22
2018-04-08T11:37:26.556Z,31.22
2018-04-08T11:38:26.573Z,30.73
2018-04-08T11:39:26.594Z,31.23
2018-04-08T11:40:26.625Z,30.36
2018-04-08T11:41:26.650Z,30.46
2018-04-08T11:42:26.658Z,30.17
2018-04-08T11:43:26.678Z,29.10
2018-04-08T11:44:26.698Z,29.70
2018-04-08T11:45:26.725Z,28.91
2018-04-08T11:46:26.744Z,28.33
2018-04-08T11:47:26.761Z,29.01
2018-04-08T11:48:26.783Z,29.12
2018-04-08T11:49:26.854Z,28.92
2018-04-08T11:50:26.827Z,29.02
2018-04-08T11:51:26.847Z,28.15
2018-04-08T11:52:26.887Z,28.73
2018-04-08T11:53:26.898Z,28.33
2018-04-08T11:54:26.922Z,29.30
2018-04-08T11:55:26.928Z,29.01
2018-04-08T11:56:26.950Z,28.33
2018-04-08T11:57:26.970Z,28.52
2018-04-08T11:58:26.998Z,27.94
2018-04-08T11:59:27.012Z,27.85
2018-04-08T12:00:27.039Z,27.08
2018-04-08T12:01:27.060Z,28.23
2018-04-08T12:02:27.075Z,27.46
2018-04-08T12:03:27.094Z,27.36
2018-04-08T12:04:27.239Z,27.46
2018-04-08T12:05:27.136Z,27.56
2018-04-08T12:06:27.173Z,27.94
2018-04-08T12:07:27.286Z,28.43
2018-04-08T12:08:27.204Z,28.52
2018-04-08T12:09:27.221Z,29.19
2018-04-08T12:10:27.253Z,28.80
2018-04-08T12:11:27.263Z,28.72
2018-04-08T12:12:27.285Z,28.25
2018-04-08T12:13:27.316Z,28.83
2018-04-08T12:14:27.330Z,28.54
2018-04-08T12:15:27.350Z,28.25
2018-04-08T12:16:27.370Z,28.34
2018-04-08T12:17:27.393Z,28.05
2018-04-08T12:18:27.412Z,28.36
2018-04-08T12:19:27.431Z,28.17
2018-04-08T12:20:27.458Z,28.36
2018-04-08T12:21:27.496Z,28.26
2018-04-08T12:22:27.503Z,27.20
2018-04-08T12:23:27.517Z,26.42
2018-04-08T12:24:27.537Z,26.23
2018-04-08T12:25:27.555Z,26.90
2018-04-08T12:26:27.578Z,27.21
2018-04-08T12:27:27.598Z,28.18
2018-04-08T12:28:27.619Z,26.92
2018-04-08T12:29:27.642Z,27.40
2018-04-08T12:30:27.671Z,27.60
2018-04-08T12:31:27.689Z,28.18
2018-04-08T12:32:27.704Z,28.39
2018-04-08T12:33:27.763Z,28.29
2018-04-08T12:34:27.752Z,27.21
2018-04-08T12:35:27.771Z,27.91
2018-04-08T12:36:27.793Z,27.50
2018-04-08T12:37:27.845Z,27.11
2018-04-08T12:38:27.836Z,27.98
2018-04-08T12:39:27.854Z,27.40
2018-04-08T12:40:27.880Z,26.63
2018-04-08T12:41:27.909Z,27.50
2018-04-08T12:42:27.925Z,27.42
2018-04-08T12:43:27.949Z,27.51
2018-04-08T12:44:27.964Z,28.00
2018-04-08T12:45:27.990Z,28.20
2018-04-08T12:46:28.016Z,27.72
2018-04-08T12:47:28.068Z,27.04
2018-04-08T12:48:28.062Z,27.53
2018-04-08T12:49:28.129Z,26.56
2018-04-08T12:50:28.104Z,27.15
2018-04-08T12:51:28.120Z,26.17
2018-04-08T12:52:28.144Z,26.27
2018-04-08T12:53:28.549Z,26.17
2018-04-08T12:54:28.197Z,26.48
2018-04-08T12:55:28.242Z,27.06
2018-04-08T12:56:28.249Z,27.15